createdAt,value
2023-02-09T01:51:18.899Z,-5.25
2023-02-09T01:52:12.544Z,-5.28
2023-02-09T01:53:11.220Z,-5.23
2023-02-09T01:54:11.124Z,-5.10
2023-02-09T01:55:11.173Z,-5.09
2023-02-09T01:56:11.077Z,-5.01
2023-02-09T01:57:11.073Z,-5.01
2023-02-09T01:58:11.134Z,-4.94
2023-02-09T01:59:11.038Z,-4.90
2023-02-09T02:00:10.993Z,-4.87
2023-02-09T02:01:10.998Z,-4.90
2023-02-09T02:02:11.024Z,-4.88
2023-02-09T02:03:11.025Z,-4.83
2023-02-09T02:04:10.950Z,-4.71
2023-02-09T02:05:10.880Z,-4.62
2023-02-09T02:06:10.868Z,-4.62
2023-02-09T02:07:10.827Z,-4.37
2023-02-09T02:08:10.804Z,-4.34
2023-02-09T02:09:10.790Z,-4.26
2023-02-09T02:10:10.762Z,-4.27
2023-02-09T02:11:11.172Z,-4.33
2023-02-09T02:12:10.721Z,-4.23
2023-02-09T02:13:10.719Z,-4.16
2023-02-09T02:14:10.690Z,-4.22
2023-02-09T02:15:10.647Z,-4.20
2023-02-09T02:16:10.701Z,-4.22
2023-02-09T02:17:10.601Z,-4.16
2023-02-09T02:18:10.591Z,-4.26
2023-02-09T02:19:10.555Z,-4.34
2023-02-09T02:20:10.527Z,-4.31
2023-02-09T02:21:10.511Z,-4.37
2023-02-09T02:22:10.482Z,-4.34
2023-02-09T02:23:10.479Z,-4.44
2023-02-09T02:24:10.435Z,-4.51
2023-02-09T02:25:10.412Z,-4.40
2023-02-09T02:26:10.397Z,-4.40
2023-02-09T02:27:10.806Z,-4.37
2023-02-09T02:28:11.265Z,-4.41
2023-02-09T02:29:10.402Z,-4.37
2023-02-09T02:30:10.307Z,-4.19
2023-02-09T02:31:10.391Z,-4.17
2023-02-09T02:32:10.256Z,-4.04
2023-02-09T02:33:10.237Z,-4.02
2023-02-09T02:34:10.213Z,-4.08
2023-02-09T02:35:10.187Z,-4.09
2023-02-09T02:36:10.169Z,-4.12
2023-02-09T02:37:10.140Z,-4.22
2023-02-09T02:38:10.121Z,-4.22
2023-02-09T02:39:10.102Z,-4.08
2023-02-09T02:40:10.080Z,-4.13
2023-02-09T02:41:11.091Z,-4.12
2023-02-09T02:42:10.035Z,-4.01
2023-02-09T02:43:10.012Z,-4.16
2023-02-09T02:44:09.990Z,-4.13
2023-02-09T02:45:09.962Z,-4.09
2023-02-09T02:46:10.027Z,-4.06
2023-02-09T02:47:09.918Z,-4.01
2023-02-09T02:48:09.899Z,-4.01
2023-02-09T02:49:09.876Z,-3.88
2023-02-09T02:50:09.858Z,-3.83
2023-02-09T02:51:09.865Z,-3.83
2023-02-09T02:52:09.844Z,-3.69
2023-02-09T02:53:09.793Z,-3.75
2023-02-09T02:54:09.765Z,-3.83
2023-02-09T02:55:09.747Z,-3.69
2023-02-09T02:56:09.725Z,-3.84
2023-02-09T02:57:09.698Z,-3.87
2023-02-09T02:58:09.675Z,-3.85
2023-02-09T02:59:09.660Z,-3.84
2023-02-09T03:00:09.641Z,-3.81
2023-02-09T03:01:09.654Z,-3.87
2023-02-09T03:02:09.585Z,-3.87
2023-02-09T03:03:09.565Z,-3.85
2023-02-09T03:04:09.550Z,-3.94
2023-02-09T03:05:09.624Z,-4.02
2023-02-09T03:06:09.496Z,-3.99
2023-02-09T03:07:09.478Z,-4.12
2023-02-09T03:08:09.451Z,-4.17
2023-02-09T03:09:09.428Z,-4.20
2023-02-09T03:10:09.413Z,-4.20
2023-02-09T03:11:09.400Z,-4.20
2023-02-09T03:12:09.362Z,-4.23
2023-02-09T03:13:09.339Z,-4.34
2023-02-09T03:14:09.320Z,-4.33
2023-02-09T03:15:09.321Z,-4.41
2023-02-09T03:16:09.306Z,-4.35
2023-02-09T03:17:09.254Z,-4.42
2023-02-09T03:18:10.171Z,-4.49
2023-02-09T03:19:09.206Z,-4.47
2023-02-09T03:20:09.201Z,-4.62
2023-02-09T03:21:09.160Z,-4.62
2023-02-09T03:22:09.152Z,-4.67
2023-02-09T03:23:09.119Z,-4.63
2023-02-09T03:24:09.095Z,-4.69
2023-02-09T03:25:09.070Z,-4.65
2023-02-09T03:26:09.050Z,-4.69
2023-02-09T03:27:09.025Z,-4.69
2023-02-09T03:28:09.034Z,-4.67
2023-02-09T03:29:10.005Z,-4.61
2023-02-09T03:30:08.961Z,-4.69
2023-02-09T03:31:09.027Z,-4.65
2023-02-09T03:32:08.914Z,-4.74
2023-02-09T03:33:10.628Z,-4.70
2023-02-09T03:34:08.871Z,-4.80
2023-02-09T03:35:08.844Z,-4.81
2023-02-09T03:36:08.831Z,-4.84
2023-02-09T03:37:08.800Z,-4.95
2023-02-09T03:38:08.783Z,-4.95
2023-02-09T03:39:08.756Z,-4.97
2023-02-09T03:40:08.732Z,-5.05
2023-02-09T03:41:08.707Z,-5.01
2023-02-09T03:42:08.687Z,-5.05
2023-02-09T03:43:08.667Z,-5.05
2023-02-09T03:44:08.643Z,-5.05
2023-02-09T03:45:08.616Z,-5.12
2023-02-09T03:46:08.660Z,-5.09
2023-02-09T03:47:08.576Z,-5.16
2023-02-09T03:48:08.563Z,-5.27
2023-02-09T03:49:08.529Z,-5.10
2023-02-09T03:50:08.513Z,-5.13
2023-02-09T03:51:08.482Z,-5.31
2023-02-09T03:52:08.463Z,-5.25
2023-02-09T03:53:08.458Z,-5.34
2023-02-09T03:54:08.419Z,-5.38
2023-02-09T03:55:08.393Z,-5.28
2023-02-09T03:56:08.370Z,-5.27
2023-02-09T03:57:08.345Z,-5.32
2023-02-09T03:58:08.331Z,-5.28
2023-02-09T03:59:08.347Z,-5.31
2023-02-09T04:00:08.337Z,-5.38
2023-02-09T04:01:08.369Z,-5.37
2023-02-09T04:02:08.283Z,-5.32
2023-02-09T04:03:08.213Z,-5.32
2023-02-09T04:04:08.186Z,-5.52
2023-02-09T04:05:08.180Z,-5.46
2023-02-09T04:06:08.146Z,-5.49
2023-02-09T04:07:08.123Z,-5.53
2023-02-09T04:08:08.095Z,-5.59
2023-02-09T04:09:08.088Z,-5.59
2023-02-09T04:10:08.048Z,-5.60
2023-02-09T04:11:08.028Z,-5.60
2023-02-09T04:12:08.003Z,-5.66
2023-02-09T04:13:07.983Z,-5.63
2023-02-09T04:14:07.957Z,-5.67
2023-02-09T04:15:07.936Z,-5.74
2023-02-09T04:16:07.954Z,-5.76
2023-02-09T04:17:07.894Z,-5.68
2023-02-09T04:18:07.868Z,-5.70
2023-02-09T04:19:07.842Z,-5.68
2023-02-09T04:20:07.835Z,-5.70
2023-02-09T04:21:07.796Z,-5.68
2023-02-09T04:22:07.779Z,-5.68
2023-02-09T04:23:07.762Z,-5.68
2023-02-09T04:24:07.736Z,-5.78
2023-02-09T04:25:07.709Z,-5.77
2023-02-09T04:26:07.701Z,-5.66
2023-02-09T04:27:07.662Z,-5.67
2023-02-09T04:28:07.667Z,-5.71
2023-02-09T04:29:07.622Z,-5.60
2023-02-09T04:30:07.595Z,-5.76
2023-02-09T04:31:07.682Z,-5.71
2023-02-09T04:32:07.668Z,-5.68
2023-02-09T04:33:07.523Z,-5.78
2023-02-09T04:34:07.503Z,-5.87
2023-02-09T04:35:07.475Z,-5.85
2023-02-09T04:36:07.458Z,-5.92
2023-02-09T04:37:08.039Z,-5.92
2023-02-09T04:38:07.414Z,-5.87
2023-02-09T04:39:07.383Z,-5.91
2023-02-09T04:40:07.861Z,-5.81
2023-02-09T04:41:07.340Z,-5.89
2023-02-09T04:42:07.320Z,-5.89
2023-02-09T04:43:07.314Z,-5.85
2023-02-09T04:44:07.285Z,-5.78
2023-02-09T04:45:07.261Z,-5.67
2023-02-09T04:46:07.298Z,-5.76
2023-02-09T04:47:07.211Z,-5.71
2023-02-09T04:48:07.183Z,-5.70
2023-02-09T04:49:07.160Z,-5.73
2023-02-09T04:50:07.145Z,-5.77
2023-02-09T04:51:07.112Z,-5.71
2023-02-09T04:52:07.096Z,-5.73
2023-02-09T04:53:07.061Z,-5.64
2023-02-09T04:54:07.053Z,-5.53
2023-02-09T04:55:07.038Z,-5.53
2023-02-09T04:56:07.024Z,-5.43
2023-02-09T04:57:07.045Z,-5.31
2023-02-09T04:58:06.953Z,-5.20
2023-02-09T04:59:06.942Z,-5.30
2023-02-09T05:00:06.921Z,-5.30
2023-02-09T05:01:06.939Z,-5.31
2023-02-09T05:02:06.874Z,-5.35
2023-02-09T05:03:06.899Z,-5.45
2023-02-09T05:04:06.816Z,-5.45
2023-02-09T05:05:06.806Z,-5.52
2023-02-09T05:06:06.782Z,-5.55
2023-02-09T05:07:06.752Z,-5.56
2023-02-09T05:08:06.729Z,-5.63
2023-02-09T05:09:06.698Z,-5.63
2023-02-09T05:10:06.679Z,-5.66
2023-02-09T05:11:06.682Z,-5.63
2023-02-09T05:12:06.636Z,-5.67
2023-02-09T05:13:06.613Z,-5.70
2023-02-09T05:14:06.592Z,-5.68
2023-02-09T05:15:06.569Z,-5.63
2023-02-09T05:16:06.607Z,-5.67
2023-02-09T05:17:06.538Z,-5.71
2023-02-09T05:18:06.505Z,-5.68
2023-02-09T05:19:06.484Z,-5.66
2023-02-09T05:20:06.456Z,-5.77
2023-02-09T05:21:06.435Z,-5.81
2023-02-09T05:22:06.409Z,-5.70
2023-02-09T05:23:06.383Z,-5.77
2023-02-09T05:24:06.367Z,-5.71
2023-02-09T05:25:06.339Z,-5.70
2023-02-09T05:26:06.322Z,-5.66
2023-02-09T05:27:06.291Z,-5.53
2023-02-09T05:28:06.358Z,-5.49
2023-02-09T05:29:06.248Z,-5.58
2023-02-09T05:30:06.219Z,-5.68
2023-02-09T05:31:06.314Z,-5.63
2023-02-09T05:32:06.285Z,-5.64
2023-02-09T05:33:06.205Z,-5.64
2023-02-09T05:34:06.133Z,-5.60
2023-02-09T05:35:08.342Z,-5.53
2023-02-09T05:36:06.102Z,-5.48
2023-02-09T05:37:06.061Z,-5.53
2023-02-09T05:38:06.114Z,-5.56
2023-02-09T05:39:06.022Z,-5.53
2023-02-09T05:40:05.996Z,-5.41
2023-02-09T05:41:05.975Z,-5.49
2023-02-09T05:42:05.941Z,-5.49
2023-02-09T05:43:05.921Z,-5.49
2023-02-09T05:44:05.950Z,-5.55
2023-02-09T05:45:05.893Z,-5.48
2023-02-09T05:46:08.301Z,-5.39
2023-02-09T05:47:05.834Z,-5.28
2023-02-09T05:48:05.812Z,-5.32
2023-02-09T05:49:05.787Z,-5.32
2023-02-09T05:50:05.763Z,-5.37
2023-02-09T05:51:05.742Z,-5.31
2023-02-09T05:52:05.718Z,-5.46
2023-02-09T05:53:05.711Z,-5.48
2023-02-09T05:54:05.708Z,-5.46
2023-02-09T05:55:05.645Z,-5.48
2023-02-09T05:56:05.623Z,-5.49
2023-02-09T05:57:05.606Z,-5.46
2023-02-09T05:58:05.600Z,-5.50
2023-02-09T05:59:05.551Z,-5.45
2023-02-09T06:00:05.536Z,-5.55
2023-02-09T06:01:05.503Z,-5.32
2023-02-09T06:02:05.506Z,-5.31
2023-02-09T06:03:05.466Z,-5.16
2023-02-09T06:04:05.556Z,-5.10
2023-02-09T06:05:05.416Z,-5.01
2023-02-09T06:06:05.389Z,-5.00
2023-02-09T06:07:05.366Z,-4.91
2023-02-09T06:08:05.344Z,-4.91
2023-02-09T06:09:05.327Z,-4.92
2023-02-09T06:10:05.303Z,-4.83
2023-02-09T06:11:05.267Z,-4.80
2023-02-09T06:12:05.254Z,-4.65
2023-02-09T06:13:05.232Z,-4.69
2023-02-09T06:14:05.204Z,-4.63
2023-02-09T06:15:05.186Z,-4.59
2023-02-09T06:16:05.189Z,-4.53
2023-02-09T06:17:05.133Z,-4.51
2023-02-09T06:18:05.109Z,-4.51
2023-02-09T06:19:05.088Z,-4.53
2023-02-09T06:20:05.061Z,-4.61
2023-02-09T06:21:05.038Z,-4.62
2023-02-09T06:22:05.017Z,-4.65
2023-02-09T06:23:05.002Z,-4.67
2023-02-09T06:24:04.981Z,-4.73
2023-02-09T06:25:04.965Z,-4.80
2023-02-09T06:26:04.924Z,-4.91
2023-02-09T06:27:04.899Z,-4.91
2023-02-09T06:28:04.942Z,-4.88
2023-02-09T06:29:04.878Z,-4.95
2023-02-09T06:30:04.835Z,-4.95
2023-02-09T06:31:04.903Z,-4.98
2023-02-09T06:32:04.907Z,-4.98
2023-02-09T06:33:04.767Z,-5.02
2023-02-09T06:34:04.744Z,-5.00
2023-02-09T06:35:04.798Z,-5.05
2023-02-09T06:36:04.699Z,-5.09
2023-02-09T06:37:04.679Z,-5.02
2023-02-09T06:38:04.668Z,-5.02
2023-02-09T06:39:04.639Z,-5.00
2023-02-09T06:40:04.612Z,-5.02
2023-02-09T06:41:04.594Z,-5.06
2023-02-09T06:42:04.578Z,-5.00
2023-02-09T06:43:04.539Z,-4.98
2023-02-09T06:44:04.514Z,-4.92
2023-02-09T06:45:04.494Z,-4.91
2023-02-09T06:46:04.527Z,-4.88
2023-02-09T06:47:04.477Z,-4.92
2023-02-09T06:48:04.430Z,-4.88
2023-02-09T06:49:04.405Z,-4.98
2023-02-09T06:50:04.602Z,-5.00
2023-02-09T06:51:04.361Z,-5.00
2023-02-09T06:52:04.336Z,-4.95
2023-02-09T06:53:04.331Z,-4.95
2023-02-09T06:54:04.290Z,-5.02
2023-02-09T06:55:04.280Z,-5.06
2023-02-09T06:56:04.245Z,-5.02
2023-02-09T06:57:04.224Z,-5.02
2023-02-09T06:58:04.213Z,-5.05
2023-02-09T06:59:04.194Z,-5.08
2023-02-09T07:00:04.169Z,-5.01
2023-02-09T07:01:04.131Z,-5.01
2023-02-09T07:02:04.174Z,-4.91
2023-02-09T07:03:04.133Z,-4.87
2023-02-09T07:04:04.061Z,-4.84
2023-02-09T07:05:04.043Z,-4.77
2023-02-09T07:06:04.020Z,-4.80
2023-02-09T07:07:03.995Z,-4.70
2023-02-09T07:08:03.991Z,-4.71
2023-02-09T07:09:03.951Z,-4.63
2023-02-09T07:10:03.929Z,-4.56
2023-02-09T07:11:03.907Z,-4.58
2023-02-09T07:12:03.882Z,-4.55
2023-02-09T07:13:03.858Z,-4.41
2023-02-09T07:14:03.836Z,-4.38
2023-02-09T07:15:03.813Z,-4.37
2023-02-09T07:16:03.865Z,-4.34
2023-02-09T07:17:03.775Z,-4.30
2023-02-09T07:18:03.741Z,-4.34
2023-02-09T07:19:03.748Z,-4.23
2023-02-09T07:20:03.713Z,-4.24
2023-02-09T07:21:03.723Z,-4.04
2023-02-09T07:22:03.659Z,-4.04
2023-02-09T07:23:03.683Z,-4.04
2023-02-09T07:24:03.649Z,-3.91
2023-02-09T07:25:03.591Z,-3.81
2023-02-09T07:26:03.578Z,-3.78
2023-02-09T07:27:03.573Z,-3.87
2023-02-09T07:28:03.567Z,-3.75
2023-02-09T07:29:03.504Z,-3.69
2023-02-09T07:30:03.492Z,-3.61
2023-02-09T07:31:03.623Z,-3.62
2023-02-09T07:32:03.454Z,-3.41
2023-02-09T07:33:03.419Z,-3.41
2023-02-09T07:34:03.406Z,-3.25
2023-02-09T07:35:03.366Z,-3.14
2023-02-09T07:36:03.339Z,-2.98
2023-02-09T07:37:03.317Z,-2.83
2023-02-09T07:38:03.297Z,-2.52
2023-02-09T07:39:03.274Z,-2.20
2023-02-09T07:40:03.255Z,-2.07
2023-02-09T07:41:03.226Z,-1.81
2023-02-09T07:42:03.218Z,-1.68
2023-02-09T07:43:03.210Z,-1.64
2023-02-09T07:44:03.197Z,-1.61
2023-02-09T07:45:03.138Z,-1.58
2023-02-09T07:46:03.129Z,-1.48
2023-02-09T07:47:03.125Z,-1.45
2023-02-09T07:48:03.101Z,-1.45
2023-02-09T07:49:03.069Z,-1.19
2023-02-09T07:50:03.072Z,-1.17
2023-02-09T07:51:03.022Z,-0.96
2023-02-09T07:52:02.992Z,-0.62
2023-02-09T07:53:02.969Z,-0.03
2023-02-09T07:54:02.953Z,0.81
2023-02-09T07:55:02.925Z,1.34
2023-02-09T07:56:02.902Z,1.64
2023-02-09T07:57:02.881Z,1.64
2023-02-09T07:58:02.865Z,1.53
2023-02-09T07:59:02.877Z,1.32
2023-02-09T08:00:02.823Z,1.12
2023-02-09T08:01:02.803Z,0.91
2023-02-09T08:02:02.832Z,0.84
2023-02-09T08:03:02.763Z,0.85
2023-02-09T08:04:02.737Z,0.85
2023-02-09T08:05:02.789Z,0.68
2023-02-09T08:06:02.700Z,0.63
2023-02-09T08:07:02.677Z,0.68
2023-02-09T08:08:05.005Z,0.82
2023-02-09T08:09:02.631Z,0.81
2023-02-09T08:10:02.618Z,0.82
2023-02-09T08:11:02.595Z,0.92
2023-02-09T08:12:02.684Z,0.82
2023-02-09T08:13:02.558Z,0.99
2023-02-09T08:14:02.535Z,1.04
2023-02-09T08:15:02.528Z,1.06
2023-02-09T08:16:02.520Z,1.12
2023-02-09T08:17:02.484Z,1.30
2023-02-09T08:18:02.456Z,1.31
2023-02-09T08:19:02.439Z,1.38
2023-02-09T08:20:02.429Z,1.45
2023-02-09T08:21:02.398Z,1.58
2023-02-09T08:22:02.388Z,1.71
2023-02-09T08:23:02.363Z,1.68
2023-02-09T08:24:02.350Z,1.71
2023-02-09T08:25:02.342Z,1.93
2023-02-09T08:26:02.306Z,1.92
2023-02-09T08:27:02.333Z,1.98
2023-02-09T08:28:02.353Z,2.03
2023-02-09T08:29:02.253Z,2.18
2023-02-09T08:30:02.229Z,2.25
2023-02-09T08:31:02.297Z,2.36
2023-02-09T08:32:02.273Z,2.52
2023-02-09T08:33:02.173Z,2.70
2023-02-09T08:34:02.148Z,2.90
2023-02-09T08:35:02.140Z,3.13
2023-02-09T08:36:02.113Z,3.53
2023-02-09T08:37:02.102Z,3.78
2023-02-09T08:38:02.078Z,4.20
2023-02-09T08:39:02.061Z,4.92
2023-02-09T08:40:02.054Z,6.01
2023-02-09T08:41:02.021Z,7.66
2023-02-09T08:42:02.033Z,9.52
2023-02-09T08:43:02.052Z,11.31
2023-02-09T08:44:01.974Z,12.91
2023-02-09T08:45:01.950Z,13.80
2023-02-09T08:46:02.037Z,13.93
2023-02-09T08:47:02.052Z,13.26
2023-02-09T08:48:01.911Z,12.30
2023-02-09T08:49:01.881Z,11.44
2023-02-09T08:50:01.874Z,10.69
2023-02-09T08:51:01.853Z,10.20
2023-02-09T08:52:01.842Z,9.72
2023-02-09T08:53:01.823Z,9.49
2023-02-09T08:54:01.813Z,9.40
2023-02-09T08:55:01.881Z,9.30
2023-02-09T08:56:01.771Z,9.36
2023-02-09T08:57:01.758Z,9.72
2023-02-09T08:58:01.744Z,10.25
2023-02-09T08:59:01.731Z,11.00
2023-02-09T09:00:01.936Z,12.25
2023-02-09T09:01:01.775Z,13.86
2023-02-09T09:02:01.693Z,15.12
2023-02-09T09:03:01.674Z,15.90
2023-02-09T09:04:01.764Z,15.75
2023-02-09T09:05:01.653Z,15.36
2023-02-09T09:06:01.631Z,14.67
2023-02-09T09:07:01.639Z,14.04
2023-02-09T09:08:01.603Z,13.70
2023-02-09T09:09:01.600Z,13.45
2023-02-09T09:10:01.662Z,13.33
2023-02-09T09:11:01.564Z,13.36
2023-02-09T09:12:01.584Z,13.37
2023-02-09T09:13:01.550Z,13.61
2023-02-09T09:14:01.580Z,13.54
2023-02-09T09:15:01.512Z,13.68
2023-02-09T09:16:03.167Z,14.26
2023-02-09T09:17:01.548Z,15.55
2023-02-09T09:18:01.494Z,17.27
2023-02-09T09:19:01.480Z,19.32
2023-02-09T09:20:01.458Z,21.25
2023-02-09T09:21:01.439Z,22.34
2023-02-09T09:22:01.430Z,22.40
2023-02-09T09:23:01.431Z,22.04
2023-02-09T09:24:01.418Z,21.14
2023-02-09T09:25:01.395Z,20.22
2023-02-09T09:26:01.389Z,19.11
2023-02-09T09:27:01.376Z,18.31
2023-02-09T09:28:01.405Z,17.73
2023-02-09T09:29:01.354Z,17.01
2023-02-09T09:30:01.345Z,16.57
2023-02-09T09:31:01.376Z,16.17
2023-02-09T09:32:01.353Z,15.66
2023-02-09T09:33:01.389Z,15.66
2023-02-09T09:34:01.302Z,15.94
2023-02-09T09:35:01.299Z,17.16
2023-02-09T09:36:01.278Z,19.23
2023-02-09T09:37:01.291Z,21.72
2023-02-09T09:38:01.259Z,24.01
2023-02-09T09:39:01.415Z,26.10
2023-02-09T09:40:01.253Z,27.78
2023-02-09T09:41:01.235Z,28.72
2023-02-09T09:42:01.227Z,28.96
2023-02-09T09:43:01.218Z,28.38
2023-02-09T09:44:01.218Z,27.18
2023-02-09T09:45:01.198Z,25.59
2023-02-09T09:46:01.256Z,24.01
2023-02-09T09:47:01.360Z,22.81
2023-02-09T09:48:01.168Z,21.94
2023-02-09T09:49:01.161Z,21.33
2023-02-09T09:50:01.245Z,20.85
2023-02-09T09:51:01.147Z,20.71
2023-02-09T09:52:01.138Z,20.59
2023-02-09T09:53:01.130Z,20.89
2023-02-09T09:54:01.122Z,21.74
2023-02-09T09:55:01.114Z,23.07
2023-02-09T09:56:01.100Z,24.96
2023-02-09T09:57:01.102Z,26.85
2023-02-09T09:58:01.093Z,28.74
2023-02-09T09:59:01.086Z,30.40
2023-02-09T10:00:01.075Z,31.11
2023-02-09T10:01:01.098Z,30.89
2023-02-09T10:02:01.053Z,29.92
2023-02-09T10:03:01.049Z,28.19
2023-02-09T10:04:01.043Z,26.16
2023-02-09T10:05:01.033Z,24.50
2023-02-09T10:06:01.022Z,23.32
2023-02-09T10:07:01.035Z,22.37
2023-02-09T10:08:01.014Z,21.25
2023-02-09T10:09:01.002Z,20.50
2023-02-09T10:10:00.994Z,19.97
2023-02-09T10:11:00.986Z,19.66
2023-02-09T10:12:00.979Z,19.63
2023-02-09T10:13:00.974Z,19.82
2023-02-09T10:14:00.961Z,20.46
2023-02-09T10:15:00.958Z,21.20
2023-02-09T10:16:00.948Z,22.73
2023-02-09T10:17:00.981Z,24.75
2023-02-09T10:18:00.944Z,26.48
2023-02-09T10:19:00.933Z,27.57
2023-02-09T10:20:00.920Z,27.45
2023-02-09T10:21:00.922Z,26.33
2023-02-09T10:22:00.923Z,25.24
2023-02-09T10:23:00.901Z,24.07
2023-02-09T10:24:00.895Z,23.10
2023-02-09T10:25:00.883Z,22.08
2023-02-09T10:26:00.880Z,21.51
2023-02-09T10:27:00.873Z,21.25
2023-02-09T10:28:00.881Z,21.15
2023-02-09T10:29:00.857Z,21.13
2023-02-09T10:30:00.851Z,21.07
2023-02-09T10:31:00.915Z,20.98
2023-02-09T10:32:00.917Z,21.01
2023-02-09T10:33:00.826Z,21.01
2023-02-09T10:34:00.822Z,21.28
2023-02-09T10:35:00.828Z,22.21
2023-02-09T10:36:00.815Z,23.63
2023-02-09T10:37:00.801Z,25.26
2023-02-09T10:38:00.811Z,27.25
2023-02-09T10:39:00.791Z,28.01
2023-02-09T10:40:00.784Z,27.81
2023-02-09T10:41:00.812Z,26.88
2023-02-09T10:42:00.773Z,25.71
2023-02-09T10:43:00.794Z,24.69
2023-02-09T10:44:00.792Z,23.94
2023-02-09T10:45:00.785Z,23.44
2023-02-09T10:46:00.813Z,23.01
2023-02-09T10:47:00.751Z,22.70
2023-02-09T10:48:00.748Z,22.52
2023-02-09T10:49:00.732Z,22.26
2023-02-09T10:50:00.759Z,22.04
2023-02-09T10:51:00.732Z,22.00
2023-02-09T10:52:00.719Z,21.99
2023-02-09T10:53:00.707Z,22.15
2023-02-09T10:54:00.706Z,22.52
2023-02-09T10:55:00.702Z,23.14
2023-02-09T10:56:00.697Z,24.32
2023-02-09T10:57:02.138Z,26.03
2023-02-09T10:58:00.684Z,27.23
2023-02-09T10:59:00.681Z,27.37
2023-02-09T11:00:00.679Z,26.64
2023-02-09T11:01:00.670Z,25.55
2023-02-09T11:02:00.663Z,24.18
2023-02-09T11:03:00.658Z,23.47
2023-02-09T11:04:00.782Z,22.80
2023-02-09T11:05:00.650Z,22.23
2023-02-09T11:06:00.667Z,21.84
2023-02-09T11:07:00.662Z,21.78
2023-02-09T11:08:00.642Z,21.84
2023-02-09T11:09:00.637Z,21.89
2023-02-09T11:10:00.627Z,21.99
2023-02-09T11:11:00.633Z,22.18
2023-02-09T11:12:00.625Z,22.37
2023-02-09T11:13:00.620Z,22.89
2023-02-09T11:14:00.627Z,23.99
2023-02-09T11:15:00.608Z,25.54
2023-02-09T11:16:00.615Z,27.23
2023-02-09T11:17:00.602Z,27.78
2023-02-09T11:18:00.587Z,27.19
2023-02-09T11:19:00.583Z,25.70
2023-02-09T11:20:00.578Z,24.16
2023-02-09T11:21:00.570Z,22.81
2023-02-09T11:22:00.570Z,22.10
2023-02-09T11:23:00.574Z,21.92
2023-02-09T11:24:00.576Z,21.83
2023-02-09T11:25:00.559Z,21.77
2023-02-09T11:26:00.564Z,21.59
2023-02-09T11:27:00.641Z,21.54
2023-02-09T11:28:00.569Z,21.33
2023-02-09T11:29:00.532Z,21.13
2023-02-09T11:30:00.551Z,21.30
2023-02-09T11:31:00.625Z,21.66
2023-02-09T11:32:00.580Z,22.62
2023-02-09T11:33:00.522Z,24.07
2023-02-09T11:34:00.518Z,25.70
2023-02-09T11:35:00.503Z,26.67
2023-02-09T11:36:00.503Z,26.60
2023-02-09T11:37:00.490Z,25.85
2023-02-09T11:38:00.489Z,25.06
2023-02-09T11:39:00.495Z,24.24
2023-02-09T11:40:00.514Z,23.92
2023-02-09T11:41:00.483Z,23.59
2023-02-09T11:42:00.486Z,23.11
2023-02-09T11:43:00.469Z,22.73
2023-02-09T11:44:00.460Z,22.30
2023-02-09T11:45:00.455Z,22.22
2023-02-09T11:46:00.492Z,22.00
2023-02-09T11:47:00.442Z,21.91
2023-02-09T11:48:00.440Z,22.08
2023-02-09T11:49:00.447Z,22.73
2023-02-09T11:50:00.439Z,23.77
2023-02-09T11:51:00.437Z,25.36
2023-02-09T11:52:00.420Z,26.56
2023-02-09T11:53:00.421Z,27.43
2023-02-09T11:54:00.412Z,27.20
2023-02-09T11:55:00.423Z,26.13
2023-02-09T11:56:00.445Z,25.40
2023-02-09T11:57:00.393Z,24.71
2023-02-09T11:58:00.394Z,23.95
2023-02-09T11:59:00.389Z,23.54
2023-02-09T12:00:00.387Z,23.04
2023-02-09T12:01:13.341Z,22.76
2023-02-09T12:02:00.376Z,22.47
2023-02-09T12:03:00.448Z,22.43
2023-02-09T12:04:00.374Z,22.43
2023-02-09T12:05:00.484Z,22.38
2023-02-09T12:06:00.354Z,22.71
2023-02-09T12:07:00.347Z,23.69
2023-02-09T12:08:00.345Z,25.11
2023-02-09T12:09:00.342Z,26.27
2023-02-09T12:10:00.368Z,26.82
2023-02-09T12:11:00.326Z,26.45
2023-02-09T12:12:00.333Z,25.86
2023-02-09T12:13:00.326Z,25.00
2023-02-09T12:14:00.310Z,24.07
2023-02-09T12:15:00.318Z,23.48
2023-02-09T12:16:00.329Z,22.96
2023-02-09T12:17:00.305Z,22.44
2023-02-09T12:18:00.283Z,21.80
2023-02-09T12:19:00.285Z,21.29
2023-02-09T12:20:00.273Z,20.85
2023-02-09T12:21:00.315Z,20.78
2023-02-09T12:22:00.254Z,21.15
2023-02-09T12:23:00.243Z,21.92
2023-02-09T12:24:00.240Z,23.20
2023-02-09T12:25:00.828Z,24.11
2023-02-09T12:26:00.217Z,24.29
2023-02-09T12:27:00.207Z,23.62
2023-02-09T12:28:00.229Z,22.52
2023-02-09T12:29:00.197Z,21.53
2023-02-09T12:30:00.192Z,20.71
2023-02-09T12:31:00.236Z,19.79
2023-02-09T12:32:00.302Z,19.00
2023-02-09T12:33:00.157Z,18.31
2023-02-09T12:34:00.181Z,17.75
2023-02-09T12:35:00.134Z,17.12
2023-02-09T12:36:00.141Z,16.86
2023-02-09T12:37:00.113Z,16.99
2023-02-09T12:38:00.122Z,17.54
2023-02-09T12:39:05.699Z,18.61
2023-02-09T12:40:00.196Z,19.71
2023-02-09T12:41:00.093Z,20.14
2023-02-09T12:42:00.095Z,19.92
2023-02-09T12:43:00.046Z,19.37
2023-02-09T12:44:00.047Z,18.67
2023-02-09T12:45:00.035Z,17.93
2023-02-09T12:46:00.092Z,17.37
2023-02-09T12:47:00.037Z,16.92
2023-02-09T12:47:59.999Z,16.51
2023-02-09T12:48:59.984Z,15.90
2023-02-09T12:49:59.966Z,15.60
2023-02-09T12:50:59.959Z,15.60
2023-02-09T12:51:59.959Z,15.52
2023-02-09T12:52:59.933Z,16.34
2023-02-09T12:53:59.923Z,17.56
2023-02-09T12:54:59.945Z,18.43
2023-02-09T12:55:59.902Z,18.51
2023-02-09T12:56:59.907Z,17.98
2023-02-09T12:57:59.880Z,17.37
2023-02-09T12:58:59.874Z,16.80
2023-02-09T12:59:59.860Z,16.10
2023-02-09T13:00:59.981Z,15.51
2023-02-09T13:01:59.875Z,15.04
2023-02-09T13:02:59.844Z,14.49
2023-02-09T13:03:59.850Z,14.18
2023-02-09T13:04:59.791Z,14.12
2023-02-09T13:05:59.787Z,14.48
2023-02-09T13:06:59.780Z,15.43
2023-02-09T13:07:59.760Z,16.21
2023-02-09T13:08:59.749Z,16.46
2023-02-09T13:09:59.735Z,16.09
2023-02-09T13:10:59.720Z,15.69
2023-02-09T13:11:59.707Z,15.23
2023-02-09T13:12:59.703Z,14.81
2023-02-09T13:13:59.766Z,14.44
2023-02-09T13:14:59.671Z,14.05
2023-02-09T13:15:59.718Z,13.79
2023-02-09T13:16:59.718Z,13.70
2023-02-09T13:17:59.637Z,14.00
2023-02-09T13:18:59.636Z,14.31
2023-02-09T13:19:59.652Z,14.68
2023-02-09T13:20:59.618Z,14.52
2023-02-09T13:21:59.582Z,14.31
2023-02-09T13:22:59.575Z,14.00
2023-02-09T13:23:59.563Z,13.57
2023-02-09T13:24:59.535Z,13.20
2023-02-09T13:25:59.558Z,13.02
2023-02-09T13:26:59.503Z,12.83
2023-02-09T13:27:59.503Z,12.81
2023-02-09T13:29:06.030Z,12.91
2023-02-09T13:29:59.472Z,13.36
2023-02-09T13:30:59.457Z,13.71
2023-02-09T13:31:59.489Z,13.64
2023-02-09T13:33:01.282Z,13.28
2023-02-09T13:33:59.413Z,12.83
2023-02-09T13:34:59.400Z,12.54
2023-02-09T13:35:59.385Z,12.12
2023-02-09T13:36:59.373Z,11.89
2023-02-09T13:37:59.350Z,11.52
2023-02-09T13:38:59.342Z,11.37
2023-02-09T13:39:59.857Z,11.12
2023-02-09T13:40:59.316Z,10.87
2023-02-09T13:41:59.371Z,10.58
2023-02-09T13:42:59.282Z,10.38
2023-02-09T13:43:59.277Z,10.38
2023-02-09T13:44:59.251Z,10.25
2023-02-09T13:45:59.317Z,10.13
2023-02-09T13:46:59.230Z,10.25
2023-02-09T13:47:59.259Z,10.09
2023-02-09T13:48:59.274Z,10.03
2023-02-09T13:49:59.191Z,9.99
2023-02-09T13:50:59.167Z,10.06
2023-02-09T13:51:59.177Z,10.05
2023-02-09T13:52:59.134Z,10.00
2023-02-09T13:53:59.165Z,10.00
2023-02-09T13:54:59.105Z,9.91
2023-02-09T13:55:59.091Z,9.80
2023-02-09T13:56:59.074Z,9.69
2023-02-09T13:57:59.077Z,9.76
2023-02-09T13:58:59.065Z,9.58
2023-02-09T13:59:59.031Z,9.62
2023-02-09T14:00:59.054Z,9.47
2023-02-09T14:01:59.007Z,9.36
2023-02-09T14:02:59.049Z,9.36
2023-02-09T14:03:59.074Z,9.31
2023-02-09T14:04:58.957Z,9.19
2023-02-09T14:05:58.940Z,9.09
2023-02-09T14:06:58.930Z,9.03
2023-02-09T14:07:58.916Z,8.97
2023-02-09T14:08:58.905Z,8.90
2023-02-09T14:09:58.881Z,8.87
2023-02-09T14:10:58.861Z,8.81
2023-02-09T14:11:58.881Z,8.77
2023-02-09T14:12:58.824Z,8.59
2023-02-09T14:13:58.814Z,8.53
2023-02-09T14:14:58.795Z,8.46
2023-02-09T14:15:58.782Z,8.46
2023-02-09T14:16:58.793Z,8.42
2023-02-09T14:17:58.743Z,8.32
2023-02-09T14:18:58.731Z,8.31
2023-02-09T14:19:58.758Z,8.27
2023-02-09T14:20:58.704Z,8.05
2023-02-09T14:21:58.688Z,8.08
2023-02-09T14:22:58.686Z,8.03
2023-02-09T14:23:58.651Z,7.87
2023-02-09T14:24:58.652Z,7.67
2023-02-09T14:25:58.619Z,7.64
2023-02-09T14:26:58.603Z,7.59
2023-02-09T14:27:58.682Z,7.46
2023-02-09T14:28:58.566Z,7.50
2023-02-09T14:29:58.557Z,7.44
2023-02-09T14:30:58.692Z,7.33
2023-02-09T14:31:58.539Z,7.41
2023-02-09T14:32:58.530Z,7.39
2023-02-09T14:33:58.497Z,7.28
2023-02-09T14:34:58.472Z,7.14
2023-02-09T14:35:58.452Z,7.07
2023-02-09T14:36:58.436Z,7.03
2023-02-09T14:37:58.423Z,7.08
2023-02-09T14:38:58.438Z,7.03
2023-02-09T14:39:58.394Z,7.01
2023-02-09T14:40:59.940Z,6.92
2023-02-09T14:41:58.361Z,6.86
2023-02-09T14:42:58.351Z,6.86
2023-02-09T14:43:58.320Z,6.82
2023-02-09T14:44:58.303Z,6.86
2023-02-09T14:45:58.355Z,6.78
2023-02-09T14:46:58.279Z,6.78